.
WxDataArchive / Data Records for 2008-04-23
2008-04-22 April 2008 2008-04-24

Data Records for Wednesday, 23 April 2008

Time	Temp	Chill	HIndex	Humid	Dewpt	 Wind 	HiWind	WindDir	Rain 	Barom 
-----	----	-----	------	-----	-----	------	------	-------	-----	----- 
00:00	53.9	53.9	53.9	87	50.1	0	0	---	0.00	30.013 
00:05	53.8	53.8	53.8	87	50.0	0	0	---	0.00	30.013 
00:10	53.6	53.6	53.6	87	49.8	0	0	---	0.00	30.013 
00:15	53.5	53.5	53.5	87	49.7	0	0	---	0.00	30.012 
00:20	53.3	53.3	53.3	88	49.8	0	0	---	0.00	30.013 
00:25	53.2	53.2	53.2	88	49.7	0	0	---	0.00	30.013 
00:30	53.1	53.1	53.1	88	49.6	0	0	---	0.00	30.013 
00:35	53.1	53.1	53.1	88	49.6	0	0	---	0.00	30.013 
00:40	53.2	53.2	53.2	89	50.0	0	0	---	0.00	30.013 
00:45	53.3	53.3	53.3	89	50.1	0	0	---	0.00	30.012 
00:50	53.3	53.3	53.3	89	50.1	0	0	---	0.00	30.012 
00:55	53.5	53.5	53.5	89	50.3	0	0	---	0.00	30.012 
01:00	53.6	53.6	53.6	89	50.4	0	0	---	0.00	30.013 
01:05	53.8	53.8	53.8	89	50.6	0	0	---	0.00	30.013 
01:10	53.8	53.8	53.8	89	50.6	0	0	---	0.00	30.013 
01:15	53.9	53.9	53.9	88	50.4	0	0	---	0.00	30.012 
01:20	53.9	53.9	53.9	88	50.4	0	0	---	0.00	30.013 
01:25	53.9	53.9	53.9	88	50.4	0	0	---	0.00	30.014 
01:30	53.8	53.8	53.8	88	50.3	0	0	---	0.00	30.014 
01:35	53.8	53.8	53.8	88	50.3	0	0	---	0.00	30.013 
01:40	53.8	53.8	53.8	88	50.3	0	1	248	0.00	30.014 
01:45	53.6	53.6	53.6	88	50.1	0	0	---	0.00	30.013 
01:50	53.5	53.5	53.5	88	50.0	0	0	---	0.00	30.013 
01:55	53.5	53.5	53.5	88	50.0	0	0	---	0.00	30.013 
02:00	53.3	53.3	53.3	88	49.8	0	0	---	0.00	30.014 
02:05	53.2	53.2	53.2	88	49.7	0	0	---	0.00	30.014 
02:10	53.1	53.1	53.1	88	49.6	0	0	---	0.00	30.014 
02:15	52.8	52.8	52.8	88	49.3	0	0	---	0.00	30.014 
02:20	52.8	52.8	52.8	89	49.6	0	0	---	0.00	30.014 
02:25	52.6	52.6	52.6	89	49.4	0	0	---	0.00	30.014 
02:30	52.5	52.5	52.5	89	49.4	0	0	---	0.00	30.014 
02:35	52.3	52.3	52.3	89	49.2	0	0	---	0.00	30.015 
02:40	52.3	52.3	52.3	90	49.5	0	0	---	0.00	30.016 
02:45	52.2	52.2	52.2	90	49.4	0	0	---	0.00	30.017 
02:50	52.2	52.2	52.2	90	49.4	0	0	---	0.00	30.017 
02:55	52.3	52.3	52.3	91	49.8	0	0	---	0.00	30.017 
03:00	52.3	52.3	52.3	91	49.8	0	0	---	0.00	30.016 
03:05	52.5	52.5	52.5	91	49.9	0	0	---	0.00	30.014 
03:10	52.6	52.6	52.6	91	50.0	0	0	---	0.00	30.012 
03:15	52.6	52.6	52.6	91	50.0	0	0	---	0.00	30.011 
03:20	52.8	52.8	52.8	91	50.2	0	0	---	0.00	30.011 
03:25	52.9	52.9	52.9	92	50.6	0	0	---	0.00	30.012 
03:30	52.9	52.9	52.9	92	50.6	0	0	---	0.00	30.013 
03:35	53.1	53.1	53.1	92	50.8	0	0	---	0.00	30.013 
03:40	53.2	53.2	53.2	92	50.9	0	0	---	0.00	30.013 
03:45	53.2	53.2	53.2	92	50.9	0	0	---	0.00	30.013 
03:50	53.3	53.3	53.3	92	51.0	0	0	---	0.00	30.014 
03:55	53.5	53.5	53.5	92	51.2	0	0	---	0.00	30.018 
04:00	53.5	53.5	53.5	91	50.9	0	0	---	0.00	30.020 
04:05	53.5	53.5	53.5	91	50.9	0	0	---	0.00	30.023 
04:10	53.5	53.5	53.5	91	50.9	0	0	---	0.00	30.025 
04:15	53.5	53.5	53.5	91	50.9	0	0	---	0.00	30.025 
04:20	53.5	53.5	53.5	91	50.9	0	0	---	0.00	30.027 
04:25	53.5	53.5	53.5	90	50.6	0	0	---	0.00	30.028 
04:30	53.5	53.5	53.5	90	50.6	0	0	---	0.00	30.028 
04:35	53.5	53.5	53.5	90	50.6	0	0	---	0.00	30.029 
04:40	53.5	53.5	53.5	90	50.6	0	0	---	0.00	30.030 
04:45	53.5	53.5	53.5	90	50.6	0	0	---	0.00	30.031 
04:50	53.8	53.8	53.8	91	51.2	0	3	248	0.00	30.043 
04:55	54.2	54.2	54.2	90	51.3	0	2	292	0.00	30.043 
05:00	55.1	55.1	55.1	87	51.3	0	1	292	0.00	30.043 
05:05	55.7	55.7	55.7	85	51.3	0	0	---	0.00	30.048 
05:10	55.9	55.9	55.9	84	51.1	0	0	---	0.00	30.048 
05:15	56.0	56.0	56.0	84	51.2	0	0	---	0.00	30.047 
05:20	56.2	56.2	56.2	84	51.4	0	0	---	0.00	30.047 
05:25	56.2	56.2	56.2	83	51.1	0	0	---	0.00	30.045 
05:30	56.2	56.2	56.2	83	51.1	0	0	---	0.00	30.045 
05:35	56.2	56.2	56.2	83	51.1	0	0	---	0.00	30.044 
05:40	56.2	56.2	56.2	84	51.4	0	0	---	0.00	30.044 
05:45	56.2	56.2	56.2	84	51.4	0	0	---	0.00	30.045 
05:50	56.2	56.2	56.2	84	51.4	0	1	292	0.00	30.045 
05:55	56.2	56.2	56.2	84	51.4	0	0	---	0.00	30.044 
06:00	56.2	56.2	56.2	84	51.4	0	0	---	0.00	30.047 
06:05	56.3	56.3	56.3	84	51.5	0	0	---	0.00	30.053 
06:10	56.2	56.2	56.2	84	51.4	0	0	---	0.00	30.056 
06:15	56.3	56.3	56.3	85	51.8	0	0	---	0.00	30.059 
06:20	56.3	56.3	56.3	85	51.8	0	0	---	0.00	30.059 
06:25	56.3	56.3	56.3	85	51.8	0	0	---	0.00	30.060 
06:30	56.5	56.5	56.5	84	51.7	0	0	---	0.00	30.061 
06:35	56.6	56.6	56.6	83	51.5	0	0	---	0.00	30.062 
06:40	56.9	56.9	56.9	83	51.8	0	0	---	0.00	30.064 
06:45	57.2	57.2	57.2	82	51.8	0	1	292	0.00	30.065 
06:50	57.5	57.5	57.5	81	51.7	0	0	---	0.00	30.069 
06:55	57.8	57.8	57.8	81	52.0	0	0	---	0.00	30.069 
07:00	58.1	58.1	58.1	82	52.6	0	0	---	0.00	30.070 
07:05	58.6	58.6	58.6	81	52.8	0	0	---	0.00	30.076 
07:10	59.3	59.3	59.3	80	53.1	0	0	---	0.00	30.078 
07:15	59.8	59.8	59.8	79	53.3	1	3	22	0.00	30.091 
07:20	60.1	60.1	60.1	78	53.2	0	1	22	0.00	30.093 
07:25	60.4	60.4	60.4	78	53.5	0	1	22	0.00	30.093 
07:30	60.9	60.9	60.9	76	53.3	0	1	22	0.00	30.095 
07:35	61.8	61.8	61.8	76	54.1	0	1	22	0.00	30.093 
07:40	62.9	62.9	62.9	71	53.3	0	3	22	0.00	30.093 
07:45	63.9	63.9	63.9	69	53.5	0	1	158	0.00	30.090 
07:50	64.7	64.7	64.7	67	53.5	0	2	158	0.00	30.092 
07:55	65.0	65.0	65.0	66	53.4	0	2	158	0.00	30.094 
08:00	65.3	65.3	65.3	64	52.8	0	2	112	0.00	30.096 
08:05	65.5	65.5	65.5	64	53.0	0	2	90	0.00	30.101 
08:10	66.0	66.0	66.0	64	53.5	0	2	90	0.00	30.102 
08:15	66.3	66.3	66.3	62	52.9	1	3	112	0.00	30.104 
08:20	66.4	66.4	66.4	61	52.5	0	2	68	0.00	30.104 
08:25	66.9	66.9	66.9	61	53.0	0	4	45	0.00	30.105 
08:30	67.6	67.6	67.6	62	54.1	0	2	45	0.00	30.106 
08:35	68.1	68.1	68.1	60	53.7	1	4	68	0.00	30.106 
08:40	68.4	68.4	68.4	59	53.5	1	3	68	0.00	30.105 
08:45	68.8	68.8	68.8	58	53.4	1	2	90	0.00	30.104 
08:50	69.3	69.3	69.3	56	52.9	1	2	112	0.00	30.105 
08:55	69.6	69.6	69.6	55	52.7	1	3	68	0.00	30.106 
09:00	69.9	69.9	69.9	56	53.5	0	2	68	0.00	30.105 
09:05	70.4	70.4	70.4	57	54.4	0	2	68	0.00	30.108 
09:10	70.8	70.8	70.8	54	53.3	1	3	90	0.00	30.109 
09:15	71.1	71.1	71.1	56	54.6	0	2	90	0.00	30.109 
09:20	71.5	71.5	71.5	54	54.0	0	2	90	0.00	30.110 
09:25	72.1	72.1	72.1	54	54.5	1	4	90	0.00	30.113 
09:30	72.3	72.3	72.3	54	54.7	0	3	112	0.00	30.116 
09:35	72.5	72.5	72.5	53	54.4	1	2	112	0.00	30.118 
09:40	72.8	72.8	72.8	51	53.6	1	4	112	0.00	30.120 
09:45	72.8	72.8	72.8	52	54.1	2	5	112	0.00	30.121 
09:50	73.0	73.0	73.0	53	54.8	1	4	90	0.00	30.121 
09:55	73.2	73.2	73.2	51	54.0	0	2	68	0.00	30.121 
10:00	73.5	73.5	73.5	50	53.7	2	5	112	0.00	30.121 
10:05	73.7	73.7	73.7	54	56.0	2	6	112	0.00	30.122 
10:10	73.9	73.9	73.9	50	54.1	1	6	22	0.00	30.123 
10:15	74.0	74.0	74.0	50	54.2	1	5	90	0.00	30.125 
10:20	74.4	74.4	74.4	49	54.0	1	3	22	0.00	30.127 
10:25	74.6	74.6	74.6	48	53.6	1	4	22	0.00	30.128 
10:30	74.7	74.7	74.7	49	54.3	1	7	45	0.00	30.127 
10:35	74.7	74.7	74.7	48	53.7	3	10	112	0.00	30.128 
10:40	74.4	74.4	74.4	49	54.0	2	7	45	0.00	30.130 
10:45	74.0	74.0	74.0	49	53.6	3	6	45	0.00	30.131 
10:50	74.0	74.0	74.0	49	53.6	2	6	68	0.00	30.133 
10:55	74.0	74.0	74.0	49	53.6	3	7	112	0.00	30.133 
11:00	74.0	74.0	74.0	49	53.6	2	6	45	0.00	30.132 
11:05	74.4	74.4	74.4	50	54.5	2	7	112	0.00	30.133 
11:10	74.4	74.4	74.4	48	53.4	3	7	112	0.00	30.134 
11:15	74.6	74.6	74.6	51	55.3	2	6	112	0.00	30.134 
11:20	74.6	74.6	74.6	49	54.2	2	6	90	0.00	30.132 
11:25	74.7	74.7	74.7	47	53.1	2	6	22	0.00	30.135 
11:30	74.9	74.9	74.9	50	55.0	1	5	45	0.00	30.135 
11:35	75.3	75.3	77.7	48	54.2	1	5	338	0.00	30.135 
11:40	75.6	75.6	77.9	50	55.6	2	6	112	0.00	30.133 
11:45	75.8	75.8	78.0	49	55.3	2	5	112	0.00	30.132 
11:50	75.8	75.8	78.0	49	55.3	1	5	112	0.00	30.132 
11:55	76.0	76.0	78.1	51	56.5	2	6	90	0.00	30.134 
12:00	76.1	76.1	78.0	46	53.8	2	5	90	0.00	30.133 
12:05	76.1	76.1	78.1	47	54.4	2	7	112	0.00	30.132 
12:10	76.0	76.0	78.0	46	53.7	2	6	112	0.00	30.129 
12:15	75.8	75.8	78.0	48	54.7	2	6	90	0.00	30.129 
12:20	76.0	76.0	78.0	47	54.3	2	6	112	0.00	30.131 
12:25	76.0	76.0	78.0	48	54.9	1	5	112	0.00	30.132 
12:30	76.3	76.3	78.2	49	55.7	1	5	90	0.00	30.128 
12:35	76.5	76.5	78.2	46	54.2	3	8	112	0.00	30.124 
12:40	76.3	76.3	78.2	47	54.6	1	3	112	0.00	30.123 
12:45	76.3	76.3	78.2	47	54.6	1	5	90	0.00	30.123 
12:50	76.0	76.0	78.0	48	54.9	2	5	112	0.00	30.124 
12:55	75.6	75.6	77.9	50	55.6	1	4	112	0.00	30.124 
13:00	75.3	75.3	77.7	50	55.4	2	5	90	0.00	30.128 
13:05	74.9	74.9	74.9	47	53.3	2	5	90	0.00	30.127 
13:10	74.9	74.9	74.9	48	53.9	2	6	112	0.00	30.127 
13:15	75.1	75.1	77.7	49	54.6	1	5	68	0.00	30.127 
13:20	75.4	75.4	77.8	47	53.7	2	6	45	0.00	30.127 
13:25	75.6	75.6	77.9	50	55.6	3	7	112	0.00	30.125 
13:30	75.8	75.8	77.9	47	54.1	2	6	112	0.00	30.125 
13:35	76.5	76.5	78.3	48	55.3	1	4	90	0.00	30.127 
13:40	77.0	77.0	78.4	45	54.0	2	5	90	0.00	30.124 
13:45	77.2	77.2	78.5	45	54.2	2	6	68	0.00	30.121 
13:50	77.4	77.4	78.7	46	55.0	3	6	112	0.00	30.120 
13:55	77.2	77.2	78.6	46	54.8	1	5	112	0.00	30.121 
14:00	76.7	76.7	78.3	45	53.7	1	5	112	0.00	30.119 
14:05	76.3	76.3	78.1	46	54.0	0	3	112	0.00	30.121 
14:10	76.0	76.0	78.0	48	54.9	1	3	68	0.00	30.120 
14:15	75.8	75.8	77.9	46	53.5	1	3	112	0.00	30.120 
14:20	75.6	75.6	77.9	49	55.1	0	2	112	0.00	30.118 
14:25	75.6	75.6	77.9	50	55.6	0	2	112	0.00	30.117 
14:30	76.3	76.3	78.1	46	54.0	1	2	112	0.00	30.110 
14:35	77.4	77.4	78.8	49	56.7	2	5	68	0.00	30.111 
14:40	77.4	77.4	78.7	46	55.0	2	5	135	0.00	30.110 
14:45	76.5	76.5	78.3	47	54.7	2	5	112	0.00	30.113 
14:50	75.8	75.8	78.0	48	54.7	1	3	112	0.00	30.112 
14:55	75.3	75.3	77.7	50	55.4	1	4	68	0.00	30.112 
15:00	75.1	75.1	77.7	49	54.6	1	3	22	0.00	30.111 
15:05	75.1	75.1	77.7	49	54.6	1	4	112	0.00	30.109 
15:10	75.1	75.1	77.7	48	54.1	0	2	112	0.00	30.107 
15:15	75.6	75.6	77.8	46	53.3	1	4	112	0.00	30.106 
15:20	76.1	76.1	78.0	45	53.2	1	3	112	0.00	30.104 
15:25	76.8	76.8	78.3	43	52.6	1	4	315	0.00	30.102 
15:30	77.0	77.0	78.4	43	52.8	1	4	45	0.00	30.103 
15:35	77.2	77.2	78.5	44	53.6	1	4	45	0.00	30.104 
15:40	77.4	77.4	78.6	43	53.1	2	5	112	0.00	30.104 
15:45	77.4	77.4	78.6	43	53.1	1	6	68	0.00	30.103 
15:50	77.2	77.2	78.5	45	54.2	1	4	112	0.00	30.103 
15:55	76.7	76.7	78.2	42	51.9	2	5	112	0.00	30.102 
16:00	76.3	76.3	78.2	47	54.6	2	6	112	0.00	30.104 
16:05	75.8	75.8	78.0	48	54.7	2	7	22	0.00	30.103 
16:10	75.6	75.6	77.9	49	55.1	2	5	68	0.00	30.102 
16:15	75.6	75.6	77.9	48	54.5	3	6	45	0.00	30.102 
16:20	75.4	75.4	77.8	47	53.7	3	7	112	0.00	30.103 
16:25	75.6	75.6	77.8	46	53.3	3	7	112	0.00	30.104 
16:30	75.3	75.3	77.7	48	54.2	3	9	112	0.00	30.104 
16:35	74.9	74.9	74.9	50	55.0	2	7	112	0.00	30.105 
16:40	74.7	74.7	74.7	49	54.3	2	7	112	0.00	30.105 
16:45	74.7	74.7	74.7	49	54.3	2	7	90	0.00	30.105 
16:50	74.9	74.9	74.9	47	53.3	3	7	22	0.00	30.104 
16:55	74.9	74.9	74.9	46	52.7	3	7	112	0.00	30.104 
17:00	74.9	74.9	74.9	47	53.3	3	7	112	0.00	30.103 
17:05	74.9	74.9	74.9	50	55.0	1	4	112	0.00	30.104 
17:10	74.7	74.7	74.7	48	53.7	4	11	112	0.00	30.105 
17:15	74.6	74.6	74.6	47	53.0	4	10	112	0.00	30.104 
17:20	74.2	74.2	74.2	48	53.2	3	10	90	0.00	30.105 
17:25	73.9	73.9	73.9	50	54.1	4	11	112	0.00	30.104 
17:30	73.7	73.7	73.7	51	54.4	3	7	112	0.00	30.105 
17:35	73.3	73.3	73.3	50	53.5	4	12	112	0.00	30.105 
17:40	73.0	73.0	73.0	50	53.2	5	12	112	0.00	30.108 
17:45	72.8	72.8	72.8	51	53.6	4	10	112	0.00	30.112 
17:50	72.5	72.5	72.5	51	53.3	4	9	112	0.00	30.115 
17:55	72.1	72.1	72.1	52	53.5	3	6	90	0.00	30.115 
18:00	71.8	71.8	71.8	53	53.7	3	6	112	0.00	30.114 
18:05	71.6	71.6	71.6	53	53.5	2	5	90	0.00	30.116 
18:10	71.5	71.5	71.5	54	54.0	3	7	112	0.00	30.115 
18:15	71.5	71.5	71.5	55	54.5	3	6	112	0.00	30.113 
18:20	71.5	71.5	71.5	55	54.5	3	7	112	0.00	30.111 
18:25	71.3	71.3	71.3	55	54.3	3	7	112	0.00	30.113 
18:30	71.1	71.1	71.1	56	54.6	4	9	90	0.00	30.109 
18:35	70.9	70.9	70.9	57	54.9	3	9	112	0.00	30.110 
18:40	70.6	70.6	70.6	58	55.1	3	7	112	0.00	30.110 
18:45	70.4	70.4	70.4	58	54.9	2	5	112	0.00	30.112 
18:50	70.1	70.1	70.1	59	55.1	2	4	90	0.00	30.112 
18:55	69.9	69.9	69.9	59	54.9	1	4	90	0.00	30.117 
19:00	69.8	69.8	69.8	59	54.8	2	4	112	0.00	30.119 
19:05	69.6	69.6	69.6	60	55.1	2	5	112	0.00	30.117 
19:10	69.3	69.3	69.3	60	54.8	1	2	90	0.00	30.120 
19:15	69.1	69.1	69.1	61	55.1	1	4	90	0.00	30.119 
19:20	68.9	68.9	68.9	61	54.9	1	4	90	0.00	30.120 
19:25	68.8	68.8	68.8	62	55.2	1	3	90	0.00	30.120 
19:30	68.4	68.4	68.4	62	54.9	0	2	90	0.00	30.120 
19:35	68.1	68.1	68.1	62	54.6	0	2	90	0.00	30.120 
19:40	67.8	67.8	67.8	63	54.7	0	1	90	0.00	30.121 
19:45	67.4	67.4	67.4	63	54.4	1	3	90	0.00	30.128 
19:50	67.3	67.3	67.3	63	54.3	1	3	90	0.00	30.129 
19:55	67.1	67.1	67.1	64	54.5	1	3	112	0.00	30.128 
20:00	66.8	66.8	66.8	65	54.6	1	3	90	0.00	30.129 
20:05	66.6	66.6	66.6	65	54.5	1	3	90	0.00	30.125 
20:10	66.3	66.3	66.3	65	54.2	1	3	112	0.00	30.124 
20:15	66.0	66.0	66.0	66	54.3	1	3	112	0.00	30.126 
20:20	65.8	65.8	65.8	65	53.7	2	4	112	0.00	30.131 
20:25	65.6	65.6	65.6	66	53.9	1	3	112	0.00	30.132 
20:30	65.5	65.5	65.5	66	53.8	1	2	112	0.00	30.132 
20:35	65.2	65.2	65.2	67	54.0	1	3	68	0.00	30.134 
20:40	64.8	64.8	64.8	67	53.6	1	4	90	0.00	30.134 
20:45	64.8	64.8	64.8	68	54.0	1	3	90	0.00	30.137 
20:50	64.7	64.7	64.7	68	53.9	2	5	90	0.00	30.137 
20:55	64.5	64.5	64.5	68	53.7	1	3	90	0.00	30.143 
21:00	64.3	64.3	64.3	68	53.5	2	5	90	0.00	30.148 
21:05	64.3	64.3	64.3	68	53.5	1	6	112	0.00	30.147 
21:10	64.2	64.2	64.2	68	53.4	2	4	112	0.00	30.148 
21:15	64.0	64.0	64.0	68	53.2	2	5	112	0.00	30.155 
21:20	64.0	64.0	64.0	68	53.2	2	5	90	0.00	30.160 
21:25	63.9	63.9	63.9	69	53.5	2	6	112	0.00	30.160 
21:30	63.5	63.5	63.5	69	53.1	2	5	90	0.00	30.161 
21:35	63.4	63.4	63.4	69	53.0	1	3	90	0.00	30.164 
21:40	63.1	63.1	63.1	69	52.8	2	4	90	0.00	30.163 
21:45	62.9	62.9	62.9	69	52.6	2	6	112	0.00	30.161 
21:50	62.6	62.6	62.6	69	52.3	2	4	112	0.00	30.158 
21:55	62.3	62.3	62.3	69	52.0	2	5	90	0.00	30.156 
22:00	62.1	62.1	62.1	69	51.8	2	4	90	0.00	30.157 
22:05	61.8	61.8	61.8	69	51.5	2	4	112	0.00	30.162 
22:10	61.5	61.5	61.5	69	51.2	1	3	112	0.00	30.163 
22:15	61.3	61.3	61.3	69	51.0	1	4	68	0.00	30.166 
22:20	61.2	61.2	61.2	68	50.5	1	4	90	0.00	30.165 
22:25	60.9	60.9	60.9	68	50.3	1	3	112	0.00	30.165 
22:30	60.7	60.7	60.7	67	49.7	2	5	112	0.00	30.165 
22:35	60.5	60.5	60.5	67	49.5	2	4	90	0.00	30.163 
22:40	60.4	60.4	60.4	66	49.0	1	4	135	0.00	30.163 
22:45	60.2	60.2	60.2	65	48.4	1	4	90	0.00	30.162 
22:50	59.9	59.9	59.9	64	47.7	2	5	112	0.00	30.162 
22:55	59.8	59.8	59.8	64	47.6	1	4	112	0.00	30.158 
23:00	59.5	59.5	59.5	63	46.9	2	4	112	0.00	30.158 
23:05	59.3	59.3	59.3	63	46.7	2	4	112	0.00	30.162 
23:10	59.0	59.0	59.0	63	46.4	1	3	112	0.00	30.165 
23:15	58.9	58.9	58.9	63	46.3	1	3	112	0.00	30.167 
23:20	58.7	58.7	58.7	63	46.1	1	4	90	0.00	30.169 
23:25	58.4	58.4	58.4	62	45.4	1	4	112	0.00	30.172 
23:30	58.3	58.3	58.3	63	45.8	1	2	112	0.00	30.169 
23:35	58.0	58.0	58.0	63	45.5	1	3	112	0.00	30.168 
23:40	57.8	57.8	57.8	62	44.9	1	6	112	0.00	30.167 
23:45	57.6	57.6	57.6	62	44.7	2	4	112	0.00	30.167 
23:50	57.5	57.5	57.5	62	44.6	2	5	90	0.00	30.166 
23:55	57.3	57.3	57.3	62	44.4	1	4	112	0.00	30.165 

CoCoRaHS
IN-AL-39
A2 Web Hosting
Creative Commons License
GoDaddy
Look for:

loaded 2017-12-12 15:04:12 • last modified 2010-11-18 10:43:29
Privacy PolicyDisclaimer
• wx.awcolley.com is powered by PmWiki v.2002016 •
• all content (unless otherwise noted) © 2017 A W Colley